Time;durP1;ratioP1;P1;durP2;ratioP2;P2;SDS_P1;SDS_P2;PMS_P1;PMS_P2;Temp;Humidity;BMP_temperature;BMP_pressure;BME280_temperature;BME280_humidity;BME280_pressure;Samples;Min_cycle;Max_cycle;Signal;HPM_P1;HPM_P2
2021/09/04 00:01:49;;;;;;;8.10;5.47;;;21.00;62.60;;;;;;4942465;28;20035;-79
2021/09/04 00:04:15;;;;;;;7.38;5.28;;;20.90;62.60;;;;;;4942797;28;20077;-78
2021/09/04 00:06:41;;;;;;;7.10;5.13;;;20.90;62.60;;;;;;4942884;28;20043;-78
2021/09/04 00:09:07;;;;;;;7.53;5.07;;;20.90;62.60;;;;;;4942944;28;20046;-80
2021/09/04 00:11:33;;;;;;;7.40;5.45;;;20.80;62.70;;;;;;4943665;28;20057;-78
2021/09/04 00:14:00;;;;;;;7.38;5.20;;;20.80;62.70;;;;;;4943236;28;20109;-78
2021/09/04 00:16:27;;;;;;;7.88;5.43;;;20.80;62.70;;;;;;4927222;28;20031;-78
2021/09/04 00:18:53;;;;;;;7.43;5.20;;;20.80;62.80;;;;;;4958166;28;20364;-78
2021/09/04 00:21:19;;;;;;;8.50;5.15;;;20.70;62.70;;;;;;4926841;28;20031;-78
2021/09/04 00:23:44;;;;;;;6.57;5.07;;;20.70;62.70;;;;;;4975565;28;20042;-78
2021/09/04 00:26:10;;;;;;;6.65;4.97;;;20.70;62.80;;;;;;4957826;28;20041;-78
2021/09/04 00:28:36;;;;;;;7.57;5.45;;;20.60;62.80;;;;;;4941904;28;20038;-78
2021/09/04 00:31:02;;;;;;;9.23;5.65;;;20.60;62.80;;;;;;4942338;28;20472;-78
2021/09/04 00:33:28;;;;;;;8.32;5.53;;;20.60;62.80;;;;;;4974949;28;20034;-79
2021/09/04 00:35:54;;;;;;;7.72;5.65;;;20.60;62.90;;;;;;4958723;28;20387;-77
2021/09/04 00:38:19;;;;;;;6.50;4.55;;;20.50;62.90;;;;;;4957547;28;20498;-80
2021/09/04 00:40:45;;;;;;;6.57;4.70;;;20.50;62.90;;;;;;4925998;28;20038;-78
2021/09/04 00:43:11;;;;;;;7.47;5.22;;;20.50;63.60;;;;;;4974865;28;20027;-78
2021/09/04 00:45:37;;;;;;;7.03;5.32;;;20.40;63.00;;;;;;4958218;28;20376;-78
2021/09/04 00:48:05;;;;;;;8.32;5.22;;;20.40;63.00;;;;;;4957691;28;20110;-79
2021/09/04 00:50:32;;;;;;;6.93;5.25;;;20.40;63.00;;;;;;4930014;29;20441;-78
2021/09/04 00:53:00;;;;;;;7.28;5.15;;;20.40;63.00;;;;;;4935536;29;20473;-78
2021/09/04 00:55:27;;;;;;;7.50;5.05;;;20.30;63.00;;;;;;4922958;29;20074;-79
2021/09/04 00:57:54;;;;;;;7.45;5.32;;;20.30;63.00;;;;;;4907886;29;20080;-78
2021/09/04 01:00:21;;;;;;;8.35;5.22;;;20.30;63.10;;;;;;4938982;29;20071;-79
2021/09/04 01:02:48;;;;;;;7.57;5.03;;;20.30;63.10;;;;;;4923529;29;20118;-80
2021/09/04 01:05:15;;;;;;;7.03;4.78;;;20.20;63.00;;;;;;4907505;29;20200;-78
2021/09/04 01:07:42;;;;;;;7.25;4.95;;;20.20;63.10;;;;;;4939417;29;20084;-78
2021/09/04 01:10:10;;;;;;;6.63;4.78;;;20.20;63.10;;;;;;4939058;29;20078;-79
2021/09/04 01:12:37;;;;;;;6.50;4.85;;;20.20;63.20;;;;;;4891569;29;20031;-79
2021/09/04 01:15:05;;;;;;;6.85;4.80;;;20.10;63.20;;;;;;4907151;29;20036;-79
2021/09/04 01:17:30;;;;;;;7.13;5.43;;;20.10;63.20;;;;;;4907367;29;20532;-79
2021/09/04 01:19:56;;;;;;;6.50;4.82;;;20.10;63.20;;;;;;4907127;29;20032;-78
2021/09/04 01:22:22;;;;;;;7.38;4.78;;;20.00;63.20;;;;;;4907100;29;20083;-79
2021/09/04 01:24:50;;;;;;;8.43;5.40;;;20.00;63.30;;;;;;4891381;29;20532;-79
2021/09/04 01:27:17;;;;;;;7.07;4.47;;;20.00;63.30;;;;;;4938347;29;20087;-78
2021/09/04 01:29:43;;;;;;;6.95;4.95;;;19.90;63.30;;;;;;4922650;29;20036;-79
2021/09/04 01:32:09;;;;;;;6.53;4.30;;;19.90;63.30;;;;;;4939775;29;20035;-82
2021/09/04 01:34:34;;;;;;;7.40;5.03;;;19.90;63.30;;;;;;4938953;29;20465;-78
2021/09/04 01:37:00;;;;;;;6.82;5.20;;;19.90;63.40;;;;;;4922407;29;20059;-78
2021/09/04 01:39:26;;;;;;;8.10;5.10;;;19.90;63.40;;;;;;4922704;29;20031;-79
2021/09/04 01:41:52;;;;;;;6.00;4.30;;;19.80;63.40;;;;;;4906634;29;20035;-80
2021/09/04 01:44:17;;;;;;;6.80;4.82;;;19.80;63.40;;;;;;4937908;29;20040;-78
2021/09/04 01:46:43;;;;;;;5.80;4.20;;;19.80;63.50;;;;;;4938008;29;20040;-79
2021/09/04 01:49:09;;;;;;;6.53;4.75;;;19.80;63.70;;;;;;4906901;29;20039;-79
2021/09/04 01:51:35;;;;;;;7.75;4.82;;;19.70;63.60;;;;;;4922144;29;20056;-78
2021/09/04 01:54:00;;;;;;;6.80;4.70;;;19.70;63.60;;;;;;4938080;29;20032;-78
2021/09/04 01:56:27;;;;;;;7.20;4.93;;;19.70;63.60;;;;;;4939042;29;20038;-78
2021/09/04 01:58:52;;;;;;;6.30;4.53;;;19.60;63.60;;;;;;4938128;29;20036;-80
2021/09/04 02:01:19;;;;;;;6.90;4.35;;;19.60;63.60;;;;;;4939228;29;20030;-78
2021/09/04 02:03:45;;;;;;;6.07;4.13;;;19.60;63.60;;;;;;4922020;29;20432;-78
2021/09/04 02:06:11;;;;;;;6.72;4.75;;;19.60;63.70;;;;;;4952369;28;20087;-78
2021/09/04 02:08:37;;;;;;;7.15;4.75;;;19.50;63.60;;;;;;4953813;28;20071;-79
2021/09/04 02:11:02;;;;;;;7.13;5.00;;;19.50;63.70;;;;;;4953613;28;20464;-78
2021/09/04 02:13:28;;;;;;;6.80;4.40;;;19.50;63.70;;;;;;4937988;29;20043;-78
2021/09/04 02:15:55;;;;;;;6.68;4.47;;;19.50;63.80;;;;;;4953675;28;20032;-78
2021/09/04 02:18:22;;;;;;;6.93;4.57;;;19.50;63.80;;;;;;4937803;29;20028;-78
2021/09/04 02:20:49;;;;;;;6.75;4.43;;;19.40;63.90;;;;;;4937637;29;20395;-79
2021/09/04 02:23:16;;;;;;;7.00;5.05;;;19.40;63.90;;;;;;4937578;29;20130;-79
2021/09/04 02:25:42;;;;;;;7.13;4.65;;;19.40;63.90;;;;;;4937606;29;20107;-78
2021/09/04 02:28:09;;;;;;;7.15;4.85;;;19.30;63.80;;;;;;4937474;29;20067;-79
2021/09/04 02:30:35;;;;;;;6.03;4.38;;;19.30;63.90;;;;;;4953947;29;20111;-78
2021/09/04 02:33:01;;;;;;;7.78;5.00;;;19.30;63.90;;;;;;4922331;29;20035;-78
2021/09/04 02:35:27;;;;;;;6.82;4.82;;;19.30;63.90;;;;;;4937491;29;20464;-79
2021/09/04 02:37:54;;;;;;;5.95;4.30;;;19.30;63.90;;;;;;4937570;29;20395;-79
2021/09/04 02:40:19;;;;;;;7.18;4.88;;;19.30;64.00;;;;;;4921385;29;20032;-78
2021/09/04 02:42:47;;;;;;;6.72;4.80;;;19.30;64.00;;;;;;4938089;29;20408;-79
2021/09/04 02:45:13;;;;;;;6.72;4.57;;;19.20;64.00;;;;;;4953745;28;20122;-79
2021/09/04 02:47:40;;;;;;;7.43;5.20;;;19.20;64.10;;;;;;4922195;29;20032;-79
2021/09/04 02:50:06;;;;;;;6.95;4.78;;;19.20;64.10;;;;;;4959357;28;20057;-78
2021/09/04 02:52:32;;;;;;;7.07;4.85;;;19.20;64.10;;;;;;4943536;28;20043;-78
2021/09/04 02:54:58;;;;;;;7.35;5.07;;;19.10;64.10;;;;;;4944226;28;20042;-79
2021/09/04 02:57:24;;;;;;;7.10;5.03;;;19.10;64.10;;;;;;4927555;28;20043;-78
2021/09/04 02:59:51;;;;;;;7.85;5.13;;;19.10;64.20;;;;;;4959515;28;20027;-78
2021/09/04 03:02:17;;;;;;;7.75;4.90;;;19.10;64.20;;;;;;4927182;28;20034;-78
2021/09/04 03:04:43;;;;;;;7.10;5.00;;;19.00;64.20;;;;;;4943468;28;20093;-78
2021/09/04 03:07:09;;;;;;;7.18;4.95;;;19.00;64.20;;;;;;4943331;28;20031;-78
2021/09/04 03:09:36;;;;;;;7.93;5.05;;;19.00;64.30;;;;;;4943172;28;20502;-78
2021/09/04 03:12:03;;;;;;;8.00;5.38;;;19.00;64.30;;;;;;4958845;28;20043;-78
2021/09/04 03:14:29;;;;;;;6.93;4.78;;;19.00;64.40;;;;;;4943783;28;20480;-78
2021/09/04 03:16:55;;;;;;;7.22;5.20;;;19.00;64.40;;;;;;4942824;28;20027;-78
2021/09/04 03:19:21;;;;;;;7.68;5.30;;;19.00;64.50;;;;;;4927883;28;20031;-79
2021/09/04 03:21:48;;;;;;;8.20;5.40;;;19.00;64.50;;;;;;4959043;28;20098;-79
2021/09/04 03:24:15;;;;;;;7.97;5.32;;;19.00;64.50;;;;;;4959546;28;20086;-78
2021/09/04 03:26:41;;;;;;;8.20;5.53;;;18.90;64.50;;;;;;4943119;28;20031;-78
2021/09/04 03:29:07;;;;;;;8.20;5.55;;;18.90;64.50;;;;;;4943197;28;20038;-78
2021/09/04 03:31:33;;;;;;;8.07;5.47;;;18.80;64.50;;;;;;4958699;28;20035;-79
2021/09/04 03:33:59;;;;;;;7.45;5.22;;;18.90;64.60;;;;;;4927180;28;20038;-79
2021/09/04 03:36:25;;;;;;;7.60;5.60;;;18.80;64.60;;;;;;4942729;28;20027;-78
2021/09/04 03:38:51;;;;;;;7.90;5.35;;;18.80;64.60;;;;;;4958498;28;20100;-78
2021/09/04 03:41:17;;;;;;;7.13;5.07;;;18.80;64.70;;;;;;4926897;28;20086;-78
2021/09/04 03:43:44;;;;;;;8.60;6.20;;;18.80;64.70;;;;;;4942384;28;20118;-78
2021/09/04 03:46:10;;;;;;;9.32;5.88;;;18.80;64.80;;;;;;4958289;28;20026;-78
2021/09/04 03:48:35;;;;;;;7.75;5.68;;;18.80;64.80;;;;;;4958405;28;20027;-78
2021/09/04 03:51:02;;;;;;;7.40;5.20;;;18.80;64.90;;;;;;4942504;28;20051;-78
2021/09/04 03:53:29;;;;;;;8.20;5.57;;;18.80;64.90;;;;;;4926737;28;20439;-79
2021/09/04 03:55:55;;;;;;;8.02;5.70;;;18.80;64.90;;;;;;4926836;28;20038;-79
2021/09/04 03:58:21;;;;;;;7.85;5.28;;;18.70;64.90;;;;;;4958563;28;20066;-78
2021/09/04 04:00:48;;;;;;;8.27;5.80;;;18.70;64.90;;;;;;4975175;28;20046;-78
2021/09/04 04:03:14;;;;;;;7.97;5.47;;;18.70;65.00;;;;;;4958125;28;20043;-78
2021/09/04 04:05:40;;;;;;;7.97;5.65;;;18.70;65.00;;;;;;4958007;28;20039;-78
2021/09/04 04:08:06;;;;;;;8.07;5.82;;;18.70;65.00;;;;;;4942273;28;20041;-79
2021/09/04 04:10:33;;;;;;;8.27;5.78;;;18.70;65.10;;;;;;4957844;28;20038;-78
2021/09/04 04:12:59;;;;;;;8.90;5.93;;;18.60;65.10;;;;;;4942860;28;20033;-78
2021/09/04 04:15:26;;;;;;;7.97;5.72;;;18.60;65.10;;;;;;4943052;28;20085;-80
2021/09/04 04:17:53;;;;;;;7.93;5.75;;;18.60;65.10;;;;;;4958903;28;20037;-79
2021/09/04 04:20:19;;;;;;;7.78;5.22;;;18.60;65.20;;;;;;4942015;28;20383;-79
2021/09/04 04:22:45;;;;;;;8.07;5.53;;;18.60;65.30;;;;;;4958612;28;20042;-79
2021/09/04 04:25:11;;;;;;;8.93;6.10;;;18.60;65.30;;;;;;4926696;28;20046;-78
2021/09/04 04:27:38;;;;;;;7.13;4.90;;;18.60;65.30;;;;;;4942525;28;20031;-79
2021/09/04 04:30:05;;;;;;;8.70;6.03;;;18.60;65.30;;;;;;4925565;28;20035;-78
2021/09/04 04:32:32;;;;;;;8.13;6.00;;;18.60;65.30;;;;;;4957523;28;20058;-79
2021/09/04 04:34:59;;;;;;;9.35;5.80;;;18.60;65.40;;;;;;4942025;28;20476;-78
2021/09/04 04:37:26;;;;;;;7.90;5.65;;;18.60;65.40;;;;;;4957728;28;20027;-79
2021/09/04 04:39:52;;;;;;;8.30;5.68;;;18.50;66.00;;;;;;4957356;28;20027;-78
2021/09/04 04:42:20;;;;;;;7.68;5.30;;;18.50;65.40;;;;;;4958298;28;20041;-78
2021/09/04 04:44:46;;;;;;;8.75;5.30;;;18.50;65.50;;;;;;4957737;28;20070;-78
2021/09/04 04:47:12;;;;;;;7.95;5.63;;;18.50;65.40;;;;;;4957928;28;20129;-78
2021/09/04 04:49:39;;;;;;;7.60;5.20;;;18.50;65.50;;;;;;4941746;28;20406;-78
2021/09/04 04:52:05;;;;;;;7.93;5.50;;;18.50;65.50;;;;;;4925387;28;20050;-79
2021/09/04 04:54:33;;;;;;;8.13;5.80;;;18.50;65.60;;;;;;4957522;28;20046;-79
2021/09/04 04:56:59;;;;;;;7.35;5.55;;;18.40;65.50;;;;;;4926228;28;20118;-79
2021/09/04 04:59:26;;;;;;;7.43;5.47;;;18.50;65.60;;;;;;4942346;28;20039;-78
2021/09/04 05:01:52;;;;;;;8.13;6.07;;;18.50;65.60;;;;;;4941548;28;20046;-80
2021/09/04 05:04:18;;;;;;;8.65;5.93;;;18.50;65.60;;;;;;4957137;28;20070;-78
2021/09/04 05:06:45;;;;;;;7.95;5.43;;;18.40;65.60;;;;;;4941546;28;20031;-78
2021/09/04 05:09:11;;;;;;;7.97;5.57;;;18.40;65.70;;;;;;4941529;28;20439;-78
2021/09/04 05:11:36;;;;;;;6.97;4.80;;;18.40;65.70;;;;;;4941462;28;20042;-78
2021/09/04 05:14:03;;;;;;;7.28;5.22;;;18.40;65.70;;;;;;4957734;28;20034;-78
2021/09/04 05:16:29;;;;;;;9.18;5.68;;;18.40;65.70;;;;;;4957318;28;20090;-78
2021/09/04 05:18:55;;;;;;;8.38;5.72;;;18.40;65.80;;;;;;4941666;28;20031;-78
2021/09/04 05:21:21;;;;;;;7.72;5.15;;;18.40;65.80;;;;;;4941443;28;20034;-78
2021/09/04 05:23:48;;;;;;;8.02;5.60;;;18.40;65.90;;;;;;4925868;28;20388;-79
2021/09/04 05:26:14;;;;;;;7.28;5.28;;;18.40;65.80;;;;;;4925644;28;20034;-80
2021/09/04 05:28:42;;;;;;;8.15;5.45;;;18.40;65.90;;;;;;4957269;28;20058;-78
2021/09/04 05:31:08;;;;;;;7.40;5.45;;;18.30;65.80;;;;;;4958188;28;20046;-78
2021/09/04 05:33:34;;;;;;;7.45;5.20;;;18.30;65.90;;;;;;4958013;28;20042;-81
2021/09/04 05:35:59;;;;;;;8.38;5.25;;;18.30;65.90;;;;;;4956977;28;20472;-78
2021/09/04 05:38:25;;;;;;;7.63;5.45;;;18.30;65.90;;;;;;4957505;28;20384;-79
2021/09/04 05:40:51;;;;;;;7.38;5.32;;;18.30;65.90;;;;;;4943594;28;20031;-78
2021/09/04 05:43:16;;;;;;;8.02;5.15;;;18.30;66.00;;;;;;4960738;28;20033;-78
2021/09/04 05:45:42;;;;;;;7.97;5.30;;;18.30;66.00;;;;;;4929103;28;20047;-78
2021/09/04 05:48:08;;;;;;;7.53;5.22;;;18.30;66.00;;;;;;4978189;28;20031;-80
2021/09/04 05:50:34;;;;;;;7.28;5.57;;;18.30;66.10;;;;;;4944558;28;20059;-78
2021/09/04 05:52:59;;;;;;;7.43;5.05;;;18.30;66.10;;;;;;4944436;28;20035;-78
2021/09/04 05:55:25;;;;;;;7.50;5.47;;;18.30;66.10;;;;;;4928385;28;20499;-79
2021/09/04 05:57:51;;;;;;;8.75;5.45;;;18.30;66.10;;;;;;4944425;28;20396;-78
2021/09/04 06:00:17;;;;;;;8.13;5.63;;;18.30;66.10;;;;;;4960086;28;20027;-78
2021/09/04 06:02:43;;;;;;;7.47;5.22;;;18.30;66.20;;;;;;4960304;28;20043;-78
2021/09/04 06:05:09;;;;;;;8.88;5.63;;;18.30;66.20;;;;;;4945010;28;20058;-78
2021/09/04 06:07:35;;;;;;;7.72;5.68;;;18.30;66.20;;;;;;4928833;28;20130;-78
2021/09/04 06:10:01;;;;;;;8.65;6.35;;;18.20;66.20;;;;;;4928555;28;20126;-78
2021/09/04 06:12:26;;;;;;;8.85;6.10;;;18.30;66.30;;;;;;4944096;28;20073;-78
2021/09/04 06:14:52;;;;;;;8.68;5.90;;;18.30;66.30;;;;;;4928707;28;20093;-78
2021/09/04 06:17:18;;;;;;;8.20;6.05;;;18.20;66.30;;;;;;4927962;28;20034;-78
2021/09/04 06:19:44;;;;;;;7.68;5.60;;;18.30;66.30;;;;;;4960044;28;20066;-79
2021/09/04 06:22:10;;;;;;;8.48;5.82;;;18.30;66.40;;;;;;4944316;28;20042;-79
2021/09/04 06:24:35;;;;;;;8.75;5.93;;;18.30;66.40;;;;;;4943996;28;20046;-79
2021/09/04 06:27:01;;;;;;;7.85;5.72;;;18.30;66.40;;;;;;4944455;28;20463;-78
2021/09/04 06:29:27;;;;;;;8.32;5.90;;;18.20;66.30;;;;;;4928135;28;20030;-80
2021/09/04 06:31:53;;;;;;;8.63;5.90;;;18.20;66.40;;;;;;4960333;28;20031;-78
2021/09/04 06:34:19;;;;;;;8.57;6.22;;;18.20;66.40;;;;;;4943616;28;20037;-78
2021/09/04 06:36:44;;;;;;;9.13;6.68;;;18.30;66.40;;;;;;4944113;28;20030;-77
2021/09/04 06:39:10;;;;;;;8.85;6.38;;;18.20;66.40;;;;;;4928101;28;20039;-78
2021/09/04 06:41:36;;;;;;;9.02;6.05;;;18.20;66.40;;;;;;4959598;28;20066;-78
2021/09/04 06:44:02;;;;;;;9.00;5.90;;;18.20;66.40;;;;;;4977021;28;20038;-78
2021/09/04 06:46:32;;;;;;;8.23;5.78;;;18.20;66.40;;;;;;4944139;28;20030;-78
2021/09/04 06:48:59;;;;;;;8.20;6.05;;;18.20;66.40;;;;;;4959489;28;20041;-78
2021/09/04 06:51:25;;;;;;;8.52;6.32;;;18.20;66.50;;;;;;4943401;28;20089;-78
2021/09/04 06:53:51;;;;;;;9.00;6.30;;;18.20;66.50;;;;;;4959794;28;20031;-78
2021/09/04 06:56:17;;;;;;;8.18;6.47;;;18.20;66.50;;;;;;4928503;28;20058;-78
2021/09/04 06:58:43;;;;;;;8.40;6.35;;;18.20;66.50;;;;;;4927484;28;20046;-78
2021/09/04 07:01:11;;;;;;;8.55;6.35;;;18.20;66.50;;;;;;4943215;28;20094;-78
2021/09/04 07:03:37;;;;;;;8.40;6.18;;;18.20;66.50;;;;;;4959019;28;20042;-78
2021/09/04 07:06:04;;;;;;;9.13;6.25;;;18.20;66.50;;;;;;4927683;28;20038;-78
2021/09/04 07:08:30;;;;;;;7.80;5.55;;;18.20;66.60;;;;;;4927208;28;20054;-79
2021/09/04 07:10:55;;;;;;;8.75;6.15;;;18.20;66.50;;;;;;4943143;28;20511;-79
2021/09/04 07:13:21;;;;;;;8.55;6.15;;;18.20;66.50;;;;;;4958995;28;20131;-78
2021/09/04 07:15:47;;;;;;;9.45;6.03;;;18.20;66.50;;;;;;4942973;28;20121;-78
2021/09/04 07:18:13;;;;;;;8.70;6.22;;;18.20;66.50;;;;;;4927328;28;20085;-78
2021/09/04 07:20:39;;;;;;;8.38;5.90;;;18.20;66.60;;;;;;4927220;28;20034;-78
2021/09/04 07:23:04;;;;;;;9.40;6.47;;;18.20;66.60;;;;;;4943070;28;20026;-78
2021/09/04 07:25:30;;;;;;;8.90;5.97;;;18.20;66.50;;;;;;4926976;28;20578;-78
2021/09/04 07:27:56;;;;;;;9.23;6.20;;;18.20;66.50;;;;;;4942484;28;20022;-79
2021/09/04 07:30:22;;;;;;;8.35;6.05;;;18.30;66.60;;;;;;4958836;28;20058;-78
2021/09/04 07:32:48;;;;;;;7.70;5.78;;;18.30;66.60;;;;;;4942559;28;20031;-81
2021/09/04 07:35:13;;;;;;;8.65;5.57;;;18.30;66.60;;;;;;4958813;28;20042;-78
2021/09/04 07:37:39;;;;;;;7.78;5.63;;;18.30;66.60;;;;;;4958546;28;20030;-78
2021/09/04 07:40:06;;;;;;;7.88;5.78;;;18.30;66.60;;;;;;4942731;28;20034;-79
2021/09/04 07:42:31;;;;;;;8.15;5.65;;;18.30;66.60;;;;;;4942704;28;20089;-78
2021/09/04 07:44:57;;;;;;;7.53;5.32;;;18.30;66.60;;;;;;4959044;28;20047;-78
2021/09/04 07:47:23;;;;;;;8.10;6.13;;;18.30;66.60;;;;;;4958290;28;20073;-80
2021/09/04 07:49:49;;;;;;;7.93;5.65;;;18.30;66.60;;;;;;4974260;28;20526;-79
2021/09/04 07:52:14;;;;;;;8.45;6.18;;;18.30;66.60;;;;;;4958317;28;20042;-78
2021/09/04 07:54:40;;;;;;;7.40;5.72;;;18.30;66.50;;;;;;4942318;28;20035;-78
2021/09/04 07:57:06;;;;;;;8.07;5.72;;;18.30;66.50;;;;;;4958267;28;20023;-80
2021/09/04 07:59:32;;;;;;;8.32;5.55;;;18.40;66.50;;;;;;4926523;28;20368;-78
2021/09/04 08:01:57;;;;;;;7.57;5.22;;;18.40;66.50;;;;;;4958088;28;20043;-79
2021/09/04 08:04:23;;;;;;;7.53;5.45;;;18.40;66.50;;;;;;4957923;28;20046;-80
2021/09/04 08:06:49;;;;;;;7.40;5.28;;;18.40;66.50;;;;;;4958711;28;20423;-81
2021/09/04 08:09:14;;;;;;;8.35;5.53;;;18.40;66.40;;;;;;4942381;28;20035;-78
2021/09/04 08:11:40;;;;;;;7.13;4.95;;;18.40;66.40;;;;;;4958223;28;20034;-78
2021/09/04 08:14:06;;;;;;;6.97;5.10;;;18.40;66.40;;;;;;4974775;28;20049;-79
2021/09/04 08:16:32;;;;;;;6.22;4.50;;;18.40;66.40;;;;;;4958038;28;20525;-78
2021/09/04 08:18:58;;;;;;;7.75;5.65;;;18.50;66.40;;;;;;4926935;28;20464;-79
2021/09/04 08:21:24;;;;;;;6.97;5.15;;;18.50;66.40;;;;;;4941878;28;20058;-78
2021/09/04 08:23:50;;;;;;;7.35;5.03;;;18.50;66.40;;;;;;4941462;28;20069;-78
2021/09/04 08:26:15;;;;;;;6.68;5.13;;;18.50;66.30;;;;;;4926140;28;20042;-78
2021/09/04 08:28:41;;;;;;;6.93;5.10;;;18.50;66.50;;;;;;4957423;28;20512;-78
2021/09/04 08:31:07;;;;;;;7.07;4.47;;;18.60;66.30;;;;;;4957678;28;20498;-78
2021/09/04 08:33:32;;;;;;;7.60;5.32;;;18.60;66.30;;;;;;4925677;28;20479;-78
2021/09/04 08:35:58;;;;;;;5.97;4.57;;;18.60;66.30;;;;;;4941840;28;20117;-79
2021/09/04 08:38:24;;;;;;;6.38;4.57;;;18.60;66.20;;;;;;4957729;28;20038;-78
2021/09/04 08:40:51;;;;;;;6.72;4.90;;;18.60;66.20;;;;;;4942099;28;20122;-78
2021/09/04 08:43:17;;;;;;;6.72;4.55;;;18.70;66.20;;;;;;4941785;28;20471;-79
2021/09/04 08:45:43;;;;;;;6.57;4.75;;;18.70;66.20;;;;;;4975374;28;20042;-79
2021/09/04 08:48:10;;;;;;;6.78;4.97;;;18.60;66.10;;;;;;4941510;28;20050;-79
2021/09/04 08:50:36;;;;;;;7.60;5.40;;;18.70;66.10;;;;;;4941414;28;20081;-78
2021/09/04 08:53:03;;;;;;;7.50;5.18;;;18.80;66.10;;;;;;4957357;28;20034;-79
2021/09/04 08:55:29;;;;;;;8.13;4.93;;;18.80;66.10;;;;;;4957585;28;20121;-79
2021/09/04 08:57:55;;;;;;;6.88;4.88;;;18.80;66.00;;;;;;4957335;28;20031;-81
2021/09/04 09:00:31;;;;;;;6.80;5.18;;;18.80;66.00;;;;;;4942194;28;20030;-79
2021/09/04 09:02:57;;;;;;;7.15;5.15;;;18.80;66.00;;;;;;4958153;28;20518;-79
2021/09/04 09:05:24;;;;;;;7.30;4.93;;;18.90;65.90;;;;;;4957210;28;20113;-79
2021/09/04 09:07:49;;;;;;;6.85;4.68;;;18.90;65.90;;;;;;4941540;28;20030;-80
2021/09/04 09:10:21;;;;;;;7.20;5.00;;;18.90;65.90;;;;;;4957124;28;20049;-78
2021/09/04 09:12:48;;;;;;;6.45;4.63;;;19.00;65.90;;;;;;4941369;28;20037;-78
2021/09/04 09:15:23;;;;;;;6.97;4.80;;;19.00;65.80;;;;;;4958306;28;20066;-79
2021/09/04 09:18:10;;;;;;;6.80;4.75;;;19.10;65.80;;;;;;4978798;28;20459;-79
2021/09/04 09:20:46;;;;;;;7.47;5.15;;;19.00;65.80;;;;;;4961444;28;20031;-78
2021/09/04 09:23:17;;;;;;;6.90;4.80;;;19.10;65.60;;;;;;4945290;28;20143;-79
2021/09/04 09:25:45;;;;;;;6.78;4.68;;;19.20;65.60;;;;;;4945176;28;20046;-80
2021/09/04 09:28:21;;;;;;;6.78;5.07;;;19.20;65.60;;;;;;4961739;28;20027;-79
2021/09/04 09:30:50;;;;;;;6.47;4.68;;;19.20;65.50;;;;;;4961271;28;20038;-80
2021/09/04 09:33:21;;;;;;;6.53;4.75;;;19.30;65.40;;;;;;4944875;28;20027;-79
2021/09/04 09:35:51;;;;;;;6.15;4.00;;;19.40;65.40;;;;;;4945188;28;20146;-79
2021/09/04 09:38:20;;;;;;;6.63;4.60;;;19.40;66.00;;;;;;4960498;28;20034;-79
2021/09/04 09:40:46;;;;;;;6.47;4.88;;;19.50;65.20;;;;;;4960762;28;20027;-79
2021/09/04 09:43:17;;;;;;;5.95;4.60;;;19.60;65.20;;;;;;4960584;28;20031;-80
2021/09/04 09:46:00;;;;;;;6.25;4.40;;;19.60;65.10;;;;;;4944486;28;20395;-80
2021/09/04 09:48:33;;;;;;;7.10;4.72;;;19.70;65.20;;;;;;4978055;28;20055;-79
2021/09/04 09:51:03;;;;;;;6.78;4.97;;;19.80;65.00;;;;;;4977763;28;20438;-81
2021/09/04 09:53:29;;;;;;;5.50;4.38;;;19.80;64.90;;;;;;4944640;28;20034;-79
2021/09/04 09:55:59;;;;;;;6.68;4.40;;;19.90;64.80;;;;;;4960873;28;20038;-79
2021/09/04 09:58:27;;;;;;;6.53;4.47;;;19.90;64.80;;;;;;4944842;28;20066;-80
2021/09/04 10:00:58;;;;;;;6.10;4.65;;;20.00;64.70;;;;;;4944587;28;20479;-80
2021/09/04 10:03:25;;;;;;;6.53;4.88;;;20.10;64.70;;;;;;4944600;28;20023;-79
2021/09/04 10:05:52;;;;;;;6.70;4.78;;;20.10;64.50;;;;;;4945481;28;20047;-79
2021/09/04 10:08:23;;;;;;;6.75;4.80;;;20.20;64.50;;;;;;4978440;28;20031;-79
2021/09/04 10:10:49;;;;;;;7.57;5.20;;;20.20;64.30;;;;;;4930354;28;20125;-80
2021/09/04 10:13:16;;;;;;;6.75;4.82;;;20.40;64.30;;;;;;4945084;28;20031;-78
2021/09/04 10:15:46;;;;;;;7.28;5.05;;;20.40;64.20;;;;;;4960299;28;20081;-77
2021/09/04 10:18:14;;;;;;;6.60;4.88;;;20.50;64.20;;;;;;4961180;28;20110;-77
2021/09/04 10:20:40;;;;;;;6.18;4.13;;;20.50;64.00;;;;;;4944230;28;20027;-78
2021/09/04 10:23:39;;;;;;;6.70;4.45;;;20.60;63.90;;;;;;4961224;28;20086;-78
2021/09/04 10:26:26;;;;;;;6.65;4.60;;;20.60;63.90;;;;;;4943499;28;20053;-79
2021/09/04 10:29:12;;;;;;;6.15;4.70;;;20.70;63.80;;;;;;4952213;28;20035;-77
2021/09/04 10:31:48;;;;;;;6.30;4.40;;;20.80;63.70;;;;;;4955044;28;20122;-77
2021/09/04 10:34:25;;;;;;;6.53;4.70;;;20.90;63.60;;;;;;4972466;28;20034;-77
2021/09/04 10:36:58;;;;;;;6.55;4.90;;;20.90;63.50;;;;;;4972073;28;20037;-78
2021/09/04 10:39:44;;;;;;;5.72;4.25;;;21.00;63.40;;;;;;4987916;28;20046;-78
2021/09/04 10:42:11;;;;;;;6.40;4.32;;;21.10;63.30;;;;;;4962449;28;20042;-79
2021/09/04 10:44:40;;;;;;;5.55;4.40;;;21.10;63.20;;;;;;4944388;28;20034;-79
2021/09/04 10:47:09;;;;;;;6.13;4.32;;;21.20;63.20;;;;;;4944264;28;20081;-80
2021/09/04 10:49:44;;;;;;;6.65;4.88;;;21.30;63.10;;;;;;4944213;28;20035;-78
2021/09/04 10:52:11;;;;;;;6.55;4.28;;;21.30;63.00;;;;;;4976993;28;20030;-79
2021/09/04 10:54:38;;;;;;;5.82;4.47;;;21.40;62.90;;;;;;4943861;28;20102;-78
2021/09/04 10:57:15;;;;;;;6.07;4.32;;;21.50;62.90;;;;;;4943398;28;20050;-78
2021/09/04 11:00:06;;;;;;;6.18;4.32;;;21.50;62.80;;;;;;4943351;28;20066;-79
2021/09/04 11:02:48;;;;;;;6.03;4.57;;;21.60;62.80;;;;;;4943705;28;20452;-78
2021/09/04 11:05:38;;;;;;;5.60;4.10;;;21.60;62.70;;;;;;4959522;28;20046;-79
2021/09/04 11:08:19;;;;;;;5.35;4.05;;;21.70;62.70;;;;;;4959026;28;20027;-79
2021/09/04 11:10:48;;;;;;;6.00;4.22;;;21.70;62.60;;;;;;4959038;28;20038;-78
2021/09/04 11:13:13;;;;;;;5.80;3.67;;;21.80;62.60;;;;;;4976093;28;20387;-78
2021/09/04 11:15:45;;;;;;;6.72;4.35;;;21.80;62.50;;;;;;4943331;28;20038;-78
2021/09/04 11:18:12;;;;;;;6.28;4.40;;;21.90;62.60;;;;;;4958746;28;20117;-77
2021/09/04 11:20:45;;;;;;;5.90;4.22;;;21.90;62.60;;;;;;4942797;28;20468;-79
2021/09/04 11:23:11;;;;;;;6.82;4.65;;;22.00;62.60;;;;;;4959058;28;20443;-79
2021/09/04 11:25:40;;;;;;;6.25;4.47;;;22.00;62.50;;;;;;4958816;28;20038;-78
2021/09/04 11:28:07;;;;;;;5.57;3.83;;;22.00;62.60;;;;;;4942985;28;20039;-79
2021/09/04 11:30:33;;;;;;;6.63;4.30;;;22.10;62.60;;;;;;4959043;28;20093;-79
2021/09/04 11:33:15;;;;;;;5.80;4.00;;;22.10;62.50;;;;;;4958535;28;20131;-78
2021/09/04 11:35:48;;;;;;;5.97;4.00;;;22.10;62.60;;;;;;4942605;28;20046;-78
2021/09/04 11:38:14;;;;;;;5.57;4.10;;;22.20;62.60;;;;;;4942746;28;20035;-78
2021/09/04 11:40:42;;;;;;;5.63;3.75;;;22.20;62.50;;;;;;4959160;28;20081;-79
2021/09/04 11:43:08;;;;;;;5.50;3.88;;;22.20;62.50;;;;;;4959188;28;20046;-78
2021/09/04 11:45:34;;;;;;;5.80;3.78;;;22.20;62.50;;;;;;4958113;28;20046;-78
2021/09/04 11:48:08;;;;;;;6.40;4.00;;;22.30;62.70;;;;;;4958691;28;20037;-78
2021/09/04 11:50:35;;;;;;;5.88;3.85;;;22.30;62.80;;;;;;4958056;28;20043;-78
2021/09/04 11:53:07;;;;;;;5.43;3.78;;;22.30;62.70;;;;;;4976135;28;20026;-78
2021/09/04 11:55:33;;;;;;;5.78;3.90;;;22.30;62.80;;;;;;4975466;28;20034;-78
2021/09/04 11:58:04;;;;;;;6.15;4.22;;;22.30;62.80;;;;;;4942472;28;20041;-78
2021/09/04 12:00:35;;;;;;;6.28;4.32;;;22.30;62.90;;;;;;4958844;28;20371;-78
2021/09/04 12:03:02;;;;;;;5.25;3.63;;;22.30;62.90;;;;;;4959051;28;20417;-79
2021/09/04 12:05:30;;;;;;;5.13;3.63;;;22.30;62.80;;;;;;4975040;28;20066;-78
2021/09/04 12:08:02;;;;;;;5.53;3.85;;;22.30;62.90;;;;;;4958178;28;20123;-78
2021/09/04 12:10:30;;;;;;;5.70;4.00;;;22.30;62.90;;;;;;4941994;28;20062;-78
2021/09/04 12:12:59;;;;;;;5.53;3.78;;;22.40;63.00;;;;;;4958257;28;20027;-77
2021/09/04 12:15:29;;;;;;;4.97;3.65;;;22.40;63.00;;;;;;4957944;28;20038;-78
2021/09/04 12:18:01;;;;;;;5.72;4.05;;;22.40;63.00;;;;;;4942207;28;20031;-78
2021/09/04 12:20:49;;;;;;;5.88;4.00;;;22.40;63.00;;;;;;4942686;28;20033;-77
2021/09/04 12:23:24;;;;;;;5.50;3.85;;;22.40;63.00;;;;;;4958201;28;20042;-78
2021/09/04 12:25:51;;;;;;;;;;;22.40;63.00;;;;;;4958244;28;20114;-78
2021/09/04 12:28:27;;;;;;;4.85;3.17;;;22.40;62.90;;;;;;4957609;28;19912;-79
2021/09/04 12:31:01;;;;;;;6.40;3.90;;;22.40;62.90;;;;;;4942660;28;20074;-79
2021/09/04 12:33:28;;;;;;;4.90;3.70;;;22.40;63.10;;;;;;4958065;28;20034;-78
2021/09/04 12:35:55;;;;;;;5.70;4.10;;;22.40;63.10;;;;;;4941688;28;20026;-78
2021/09/04 12:38:30;;;;;;;5.68;3.92;;;22.40;63.20;;;;;;4941679;28;20387;-78
2021/09/04 12:41:16;;;;;;;5.20;3.67;;;22.40;63.20;;;;;;4941953;28;20126;-78
2021/09/04 12:43:48;;;;;;;5.70;3.72;;;22.40;63.20;;;;;;4958080;28;20066;-78
2021/09/04 12:46:43;;;;;;;6.60;4.10;;;22.40;63.20;;;;;;4941534;28;20043;-78
2021/09/04 12:49:31;;;;;;;6.78;3.83;;;22.40;63.30;;;;;;4957312;28;20038;-78
2021/09/04 12:52:13;;;;;;;5.50;4.00;;;22.40;63.20;;;;;;4956935;28;20046;-79